createdAt,value
2018-09-24T00:00:31.858Z,100.0
2018-09-24T00:01:32.528Z,100.0
2018-09-24T00:02:33.200Z,100.0
2018-09-24T00:03:33.870Z,100.0
2018-09-24T00:04:34.540Z,100.0
2018-09-24T00:05:35.211Z,100.0
2018-09-24T00:06:35.881Z,100.0
2018-09-24T00:07:36.551Z,100.0
2018-09-24T00:08:37.226Z,100.0
2018-09-24T00:09:37.940Z,100.0
2018-09-24T00:10:38.607Z,100.0
2018-09-24T00:11:39.277Z,100.0
2018-09-24T00:12:39.946Z,100.0
2018-09-24T00:13:40.618Z,100.0
2018-09-24T00:14:41.288Z,100.0
2018-09-24T00:15:41.958Z,100.0
2018-09-24T00:16:42.629Z,100.0
2018-09-24T00:17:43.298Z,100.0
2018-09-24T00:18:43.970Z,100.0
2018-09-24T00:19:44.640Z,100.0
2018-09-24T00:20:45.314Z,100.0
2018-09-24T00:21:45.982Z,100.0
2018-09-24T00:22:46.651Z,100.0
2018-09-24T00:23:47.320Z,100.0
2018-09-24T00:24:47.992Z,100.0
2018-09-24T00:25:48.661Z,100.0
2018-09-24T00:26:49.333Z,100.0
2018-09-24T00:27:50.003Z,100.0
2018-09-24T00:28:50.673Z,100.0
2018-09-24T00:29:51.342Z,100.0
2018-09-24T00:30:52.014Z,100.0
2018-09-24T00:31:52.682Z,100.0
2018-09-24T00:32:53.352Z,100.0
2018-09-24T00:33:54.022Z,100.0
2018-09-24T00:34:54.692Z,100.0
2018-09-24T00:35:55.364Z,100.0
2018-09-24T00:36:56.036Z,100.0
2018-09-24T00:37:56.750Z,100.0
2018-09-24T00:38:57.419Z,100.0
2018-09-24T00:39:58.095Z,100.0
2018-09-24T00:40:58.761Z,100.0
2018-09-24T00:41:59.433Z,100.0
2018-09-24T00:43:00.101Z,100.0
2018-09-24T00:44:00.770Z,100.0
2018-09-24T00:45:01.441Z,100.0
2018-09-24T00:46:02.109Z,100.0
2018-09-24T00:47:02.781Z,100.0
2018-09-24T00:48:03.453Z,100.0
2018-09-24T00:49:04.124Z,100.0
2018-09-24T00:50:04.794Z,100.0
2018-09-24T00:51:05.465Z,100.0
2018-09-24T00:52:06.136Z,100.0
2018-09-24T00:53:06.809Z,100.0
2018-09-24T00:54:07.480Z,100.0
2018-09-24T00:55:08.153Z,100.0
2018-09-24T00:56:08.826Z,100.0
2018-09-24T00:57:09.493Z,100.0
2018-09-24T00:58:10.163Z,100.0
2018-09-24T00:59:10.835Z,100.0
2018-09-24T01:00:11.506Z,100.0
2018-09-24T01:01:12.178Z,100.0
2018-09-24T01:02:12.848Z,100.0
2018-09-24T01:03:13.520Z,100.0
2018-09-24T01:04:14.237Z,100.0
2018-09-24T01:05:14.911Z,100.0
2018-09-24T01:06:15.581Z,100.0
2018-09-24T01:07:16.252Z,100.0
2018-09-24T01:08:16.923Z,100.0
2018-09-24T01:09:17.594Z,100.0
2018-09-24T01:10:18.311Z,100.0
2018-09-24T01:11:18.982Z,100.0
2018-09-24T01:12:19.654Z,100.0
2018-09-24T01:13:20.326Z,100.0
2018-09-24T01:14:20.999Z,100.0
2018-09-24T01:15:21.668Z,100.0
2018-09-24T01:16:22.341Z,100.0
2018-09-24T01:17:23.012Z,100.0
2018-09-24T01:18:23.683Z,100.0
2018-09-24T01:19:24.354Z,100.0
2018-09-24T01:20:25.026Z,100.0
2018-09-24T01:21:25.746Z,100.0
2018-09-24T01:22:26.416Z,100.0
2018-09-24T01:23:27.089Z,100.0
2018-09-24T01:24:27.760Z,100.0
2018-09-24T01:25:28.431Z,100.0
2018-09-24T01:26:29.102Z,100.0
2018-09-24T01:27:29.775Z,100.0
2018-09-24T01:28:30.446Z,100.0
2018-09-24T01:29:31.117Z,100.0
2018-09-24T01:30:31.788Z,100.0
2018-09-24T01:31:32.461Z,100.0
2018-09-24T01:32:33.131Z,100.0
2018-09-24T01:33:33.803Z,100.0
2018-09-24T01:34:34.519Z,100.0
2018-09-24T01:35:35.191Z,100.0
2018-09-24T01:36:35.862Z,100.0
2018-09-24T01:37:36.533Z,100.0
2018-09-24T01:38:37.208Z,100.0
2018-09-24T01:39:37.877Z,100.0
2018-09-24T01:40:38.549Z,100.0
2018-09-24T01:41:39.221Z,100.0
2018-09-24T01:42:39.894Z,100.0
2018-09-24T01:43:40.565Z,100.0
2018-09-24T01:44:41.237Z,100.0
2018-09-24T01:45:41.954Z,100.0
2018-09-24T01:46:42.626Z,100.0
2018-09-24T01:47:43.297Z,100.0
2018-09-24T01:48:43.968Z,100.0
2018-09-24T01:49:44.638Z,100.0
2018-09-24T01:50:45.358Z,100.0
2018-09-24T01:51:46.027Z,100.0
2018-09-24T01:52:46.697Z,100.0
2018-09-24T01:53:47.368Z,100.0
2018-09-24T01:54:48.041Z,100.0
2018-09-24T01:55:48.713Z,100.0
2018-09-24T01:56:49.383Z,100.0
2018-09-24T01:57:50.056Z,100.0
2018-09-24T01:58:50.727Z,100.0
2018-09-24T01:59:51.400Z,100.0
2018-09-24T02:00:52.071Z,100.0
2018-09-24T02:01:52.743Z,100.0
2018-09-24T02:02:53.413Z,100.0
2018-09-24T02:03:54.086Z,100.0
2018-09-24T02:04:54.757Z,100.0
2018-09-24T02:05:55.428Z,100.0
2018-09-24T02:06:56.099Z,100.0
2018-09-24T02:07:56.771Z,100.0
2018-09-24T02:08:57.444Z,100.0
2018-09-24T02:09:58.122Z,100.0
2018-09-24T02:10:58.790Z,100.0
2018-09-24T02:11:59.461Z,100.0
2018-09-24T02:13:00.132Z,100.0
2018-09-24T02:14:00.808Z,100.0
2018-09-24T02:15:01.523Z,100.0
2018-09-24T02:16:02.194Z,100.0
2018-09-24T02:17:02.865Z,100.0
2018-09-24T02:18:03.540Z,100.0
2018-09-24T02:19:04.213Z,100.0
2018-09-24T02:20:04.887Z,100.0
2018-09-24T02:21:05.559Z,100.0
2018-09-24T02:22:06.236Z,100.0
2018-09-24T02:23:06.903Z,100.0
2018-09-24T02:24:07.576Z,100.0
2018-09-24T02:25:08.250Z,100.0
2018-09-24T02:26:08.923Z,100.0
2018-09-24T02:27:09.595Z,100.0
2018-09-24T02:28:10.267Z,100.0
2018-09-24T02:29:10.941Z,100.0
2018-09-24T02:30:11.615Z,100.0
2018-09-24T02:31:12.287Z,100.0
2018-09-24T02:32:12.961Z,100.0
2018-09-24T02:33:13.631Z,100.0
2018-09-24T02:34:14.304Z,100.0
2018-09-24T02:35:14.975Z,100.0
2018-09-24T02:36:15.656Z,100.0
2018-09-24T02:37:16.367Z,100.0
2018-09-24T02:38:17.039Z,100.0
2018-09-24T02:39:17.714Z,100.0
2018-09-24T02:40:18.387Z,100.0
2018-09-24T02:41:19.105Z,100.0
2018-09-24T02:42:19.778Z,100.0
2018-09-24T02:43:20.449Z,100.0
2018-09-24T02:44:21.123Z,100.0
2018-09-24T02:45:21.801Z,100.0
2018-09-24T02:46:22.512Z,100.0
2018-09-24T02:47:23.184Z,100.0
2018-09-24T02:48:23.856Z,100.0
2018-09-24T02:49:24.529Z,100.0
2018-09-24T02:50:25.203Z,100.0
2018-09-24T02:51:25.876Z,100.0
2018-09-24T02:52:26.548Z,100.0
2018-09-24T02:53:27.220Z,100.0
2018-09-24T02:54:27.893Z,100.0
2018-09-24T02:55:28.566Z,100.0
2018-09-24T02:56:29.237Z,100.0
2018-09-24T02:57:29.914Z,100.0
2018-09-24T02:58:30.583Z,100.0
2018-09-24T02:59:31.256Z,100.0
2018-09-24T03:00:31.929Z,100.0
2018-09-24T03:01:32.610Z,100.0
2018-09-24T03:02:33.322Z,100.0
2018-09-24T03:03:34.034Z,100.0
2018-09-24T03:04:34.669Z,100.0
2018-09-24T03:05:35.341Z,100.0
2018-09-24T03:06:36.013Z,100.0
2018-09-24T03:07:36.686Z,100.0
2018-09-24T03:08:37.406Z,100.0
2018-09-24T03:09:38.123Z,100.0
2018-09-24T03:10:38.796Z,100.0
2018-09-24T03:11:39.470Z,100.0
2018-09-24T03:12:40.143Z,100.0
2018-09-24T03:13:40.832Z,100.0
2018-09-24T03:14:41.489Z,100.0
2018-09-24T03:15:42.162Z,100.0
2018-09-24T03:16:42.834Z,100.0
2018-09-24T03:17:43.507Z,100.0
2018-09-24T03:18:44.184Z,100.0
2018-09-24T03:19:44.855Z,100.0
2018-09-24T03:20:45.527Z,100.0
2018-09-24T03:21:46.200Z,100.0
2018-09-24T03:22:46.872Z,100.0
2018-09-24T03:23:47.545Z,100.0
2018-09-24T03:24:48.216Z,100.0
2018-09-24T03:25:48.889Z,100.0
2018-09-24T03:26:49.564Z,100.0
2018-09-24T03:27:50.246Z,100.0
2018-09-24T03:28:50.953Z,100.0
2018-09-24T03:29:51.627Z,100.0
2018-09-24T03:30:52.339Z,100.0
2018-09-24T03:31:53.015Z,100.0
2018-09-24T03:32:53.688Z,100.0
2018-09-24T03:33:54.711Z,100.0
2018-09-24T03:34:55.321Z,100.0
2018-09-24T03:35:55.994Z,100.0
2018-09-24T03:36:56.665Z,100.0
2018-09-24T03:37:57.338Z,100.0
2018-09-24T03:38:58.010Z,100.0
2018-09-24T03:39:58.683Z,100.0
2018-09-24T03:40:59.355Z,100.0
2018-09-24T03:42:00.170Z,100.0
2018-09-24T03:43:00.745Z,100.0
2018-09-24T03:44:01.421Z,100.0
2018-09-24T03:45:02.089Z,100.0
2018-09-24T03:46:02.760Z,100.0
2018-09-24T03:47:03.431Z,100.0
2018-09-24T03:48:04.104Z,100.0
2018-09-24T03:49:04.776Z,100.0
2018-09-24T03:50:05.448Z,100.0
2018-09-24T03:51:06.121Z,100.0
2018-09-24T03:52:06.792Z,100.0
2018-09-24T03:53:07.465Z,100.0
2018-09-24T03:54:08.136Z,100.0
2018-09-24T03:55:08.823Z,100.0
2018-09-24T03:56:09.526Z,100.0
2018-09-24T03:57:10.201Z,100.0
2018-09-24T03:58:10.875Z,100.0
2018-09-24T03:59:11.546Z,100.0
2018-09-24T04:00:12.223Z,100.0
2018-09-24T04:01:12.891Z,100.0
2018-09-24T04:02:13.563Z,100.0
2018-09-24T04:03:14.237Z,100.0
2018-09-24T04:04:14.910Z,100.0
2018-09-24T04:05:15.582Z,100.0
2018-09-24T04:06:16.256Z,100.0
2018-09-24T04:07:16.927Z,100.0
2018-09-24T04:08:17.604Z,100.0
2018-09-24T04:09:18.325Z,100.0
2018-09-24T04:10:18.952Z,100.0
2018-09-24T04:11:19.622Z,100.0
2018-09-24T04:12:20.293Z,100.0
2018-09-24T04:13:20.966Z,100.0
2018-09-24T04:14:21.638Z,100.0
2018-09-24T04:15:22.363Z,100.0
2018-09-24T04:16:23.037Z,100.0
2018-09-24T04:17:23.713Z,100.0
2018-09-24T04:18:24.383Z,100.0
2018-09-24T04:19:25.073Z,100.0
2018-09-24T04:20:25.730Z,100.0
2018-09-24T04:21:26.403Z,100.0
2018-09-24T04:22:27.074Z,100.0
2018-09-24T04:23:27.748Z,100.0
2018-09-24T04:24:28.420Z,100.0
2018-09-24T04:25:29.095Z,100.0
2018-09-24T04:26:29.767Z,100.0
2018-09-24T04:27:30.440Z,100.0
2018-09-24T04:28:31.112Z,100.0
2018-09-24T04:29:31.784Z,100.0
2018-09-24T04:30:32.459Z,100.0
2018-09-24T04:31:33.128Z,100.0
2018-09-24T04:32:33.798Z,100.0
2018-09-24T04:33:34.470Z,100.0
2018-09-24T04:34:35.143Z,100.0
2018-09-24T04:35:35.814Z,100.0
2018-09-24T04:36:36.487Z,100.0
2018-09-24T04:37:37.158Z,100.0
2018-09-24T04:38:37.830Z,100.0
2018-09-24T04:39:38.516Z,100.0
2018-09-24T04:40:39.177Z,100.0
2018-09-24T04:41:39.891Z,100.0
2018-09-24T04:42:40.563Z,100.0
2018-09-24T04:43:41.233Z,100.0
2018-09-24T04:44:41.906Z,100.0
2018-09-24T04:45:42.579Z,100.0
2018-09-24T04:46:43.252Z,100.0
2018-09-24T04:47:43.924Z,100.0
2018-09-24T04:48:44.597Z,100.0
2018-09-24T04:49:45.271Z,100.0
2018-09-24T04:50:45.993Z,100.0
2018-09-24T04:51:46.666Z,100.0
2018-09-24T04:52:47.339Z,100.0
2018-09-24T04:53:48.011Z,100.0
2018-09-24T04:54:48.687Z,100.0
2018-09-24T04:55:49.358Z,100.0
2018-09-24T04:56:50.031Z,100.0
2018-09-24T04:57:50.703Z,100.0
2018-09-24T04:58:51.377Z,100.0
2018-09-24T04:59:52.053Z,100.0
2018-09-24T05:00:52.722Z,100.0
2018-09-24T05:01:53.398Z,100.0
2018-09-24T05:02:54.071Z,100.0
2018-09-24T05:03:54.744Z,100.0
2018-09-24T05:04:55.417Z,100.0
2018-09-24T05:05:56.091Z,100.0
2018-09-24T05:06:56.765Z,100.0
2018-09-24T05:07:57.485Z,100.0
2018-09-24T05:08:58.159Z,100.0
2018-09-24T05:09:58.833Z,100.0
2018-09-24T05:10:59.506Z,100.0
2018-09-24T05:12:00.181Z,100.0
2018-09-24T05:13:00.858Z,100.0
2018-09-24T05:14:01.535Z,100.0
2018-09-24T05:15:02.255Z,100.0
2018-09-24T05:16:02.972Z,100.0
2018-09-24T05:17:03.602Z,100.0
2018-09-24T05:18:04.328Z,100.0
2018-09-24T05:19:05.004Z,100.0
2018-09-24T05:20:05.748Z,100.0
2018-09-24T05:21:06.401Z,100.0
2018-09-24T05:22:07.075Z,100.0
2018-09-24T05:23:07.802Z,100.0
2018-09-24T05:24:08.476Z,100.0
2018-09-24T05:25:09.154Z,100.0
2018-09-24T05:26:09.829Z,100.0
2018-09-24T05:27:10.536Z,100.0
2018-09-24T05:28:11.180Z,100.0
2018-09-24T05:29:11.856Z,100.0
2018-09-24T05:30:12.530Z,100.0
2018-09-24T05:31:13.205Z,100.0
2018-09-24T05:32:13.912Z,100.0
2018-09-24T05:33:14.555Z,100.0
2018-09-24T05:34:15.251Z,100.0
2018-09-24T05:35:15.910Z,100.0
2018-09-24T05:36:16.583Z,100.0
2018-09-24T05:37:17.309Z,100.0
2018-09-24T05:38:17.997Z,100.0
2018-09-24T05:39:18.659Z,100.0
2018-09-24T05:40:19.335Z,100.0
2018-09-24T05:41:20.068Z,100.0
2018-09-24T05:42:20.705Z,100.0
2018-09-24T05:43:21.408Z,100.0
2018-09-24T05:44:22.123Z,100.0
2018-09-24T05:45:22.806Z,100.0
2018-09-24T05:46:23.481Z,100.0
2018-09-24T05:47:24.169Z,100.0
2018-09-24T05:48:24.833Z,100.0
2018-09-24T05:49:25.509Z,100.0
2018-09-24T05:50:26.186Z,100.0
2018-09-24T05:51:26.860Z,100.0
2018-09-24T05:52:27.538Z,100.0
2018-09-24T05:53:28.214Z,100.0
2018-09-24T05:54:28.891Z,100.0
2018-09-24T05:55:29.571Z,100.0
2018-09-24T05:56:30.244Z,100.0
2018-09-24T05:57:30.920Z,100.0
2018-09-24T05:58:31.596Z,100.0
2018-09-24T05:59:32.274Z,100.0
2018-09-24T06:00:32.951Z,100.0
2018-09-24T06:01:33.622Z,100.0
2018-09-24T06:02:34.298Z,100.0
2018-09-24T06:03:34.974Z,100.0
2018-09-24T06:04:35.660Z,100.0
2018-09-24T06:05:36.325Z,100.0
2018-09-24T06:06:37.001Z,100.0
2018-09-24T06:07:37.680Z,100.0
2018-09-24T06:08:38.356Z,100.0
2018-09-24T06:09:39.033Z,100.0
2018-09-24T06:10:39.712Z,100.0
2018-09-24T06:11:40.389Z,100.0
2018-09-24T06:12:41.067Z,100.0
2018-09-24T06:13:41.784Z,100.0
2018-09-24T06:14:42.422Z,100.0
2018-09-24T06:15:43.100Z,100.0
2018-09-24T06:16:43.777Z,100.0
2018-09-24T06:17:44.454Z,100.0
2018-09-24T06:18:45.130Z,100.0
2018-09-24T06:19:45.808Z,100.0
2018-09-24T06:20:46.489Z,100.0
2018-09-24T06:21:47.165Z,100.0
2018-09-24T06:22:47.841Z,100.0
2018-09-24T06:23:48.520Z,100.0
2018-09-24T06:24:49.200Z,100.0
2018-09-24T06:25:49.875Z,100.0
2018-09-24T06:26:50.552Z,100.0
2018-09-24T06:27:51.229Z,100.0
2018-09-24T06:28:51.911Z,100.0
2018-09-24T06:29:52.586Z,100.0
2018-09-24T06:30:53.262Z,100.0
2018-09-24T06:31:53.939Z,100.0
2018-09-24T06:32:54.617Z,100.0
2018-09-24T06:33:55.295Z,100.0
2018-09-24T06:34:55.973Z,100.0
2018-09-24T06:35:56.650Z,100.0
2018-09-24T06:36:57.330Z,100.0
2018-09-24T06:37:58.008Z,100.0
2018-09-24T06:38:58.685Z,100.0
2018-09-24T06:39:59.362Z,100.0
2018-09-24T06:41:00.085Z,100.0
2018-09-24T06:42:00.716Z,100.0
2018-09-24T06:43:01.395Z,100.0
2018-09-24T06:44:02.120Z,100.0
2018-09-24T06:45:02.841Z,100.0
2018-09-24T06:46:03.523Z,100.0
2018-09-24T06:47:04.242Z,100.0
2018-09-24T06:48:04.918Z,100.0
2018-09-24T06:49:05.595Z,100.0
2018-09-24T06:50:06.272Z,100.0
2018-09-24T06:51:06.950Z,100.0
2018-09-24T06:52:07.632Z,99.8
2018-09-24T06:53:08.305Z,99.7
2018-09-24T06:54:08.989Z,99.4
2018-09-24T06:55:09.659Z,99.8
2018-09-24T06:56:10.336Z,99.3
2018-09-24T06:57:11.012Z,99.7
2018-09-24T06:58:11.693Z,99.7
2018-09-24T06:59:12.367Z,99.5
2018-09-24T07:00:13.043Z,98.9
2018-09-24T07:01:13.718Z,99.4
2018-09-24T07:02:14.396Z,98.8
2018-09-24T07:03:15.072Z,95.5
2018-09-24T07:04:15.748Z,95.3
2018-09-24T07:05:16.429Z,95.8
2018-09-24T07:06:17.146Z,95.2
2018-09-24T07:07:17.824Z,93.9
2018-09-24T07:08:18.500Z,94.8
2018-09-24T07:09:19.181Z,94.6
2018-09-24T07:10:19.854Z,94.1
2018-09-24T07:11:20.576Z,93.4
2018-09-24T07:12:21.208Z,94.3
2018-09-24T07:13:21.885Z,93.9
2018-09-24T07:14:22.561Z,93.2
2018-09-24T07:15:23.239Z,93.3
2018-09-24T07:16:23.958Z,93.4
2018-09-24T07:17:24.639Z,93.9
2018-09-24T07:18:25.315Z,94.5
2018-09-24T07:19:25.989Z,93.6
2018-09-24T07:20:26.670Z,95.5
2018-09-24T07:21:27.368Z,94.7
2018-09-24T07:22:28.026Z,94.4
2018-09-24T07:23:28.700Z,93.6
2018-09-24T07:24:29.381Z,92.6
2018-09-24T07:25:30.104Z,92.6
2018-09-24T07:26:30.827Z,93.5
2018-09-24T07:27:31.531Z,91.7
2018-09-24T07:28:32.248Z,91.3
2018-09-24T07:29:32.861Z,91.1
2018-09-24T07:30:33.541Z,91.7
2018-09-24T07:31:34.220Z,90.9
2018-09-24T07:32:34.898Z,91.0
2018-09-24T07:33:35.574Z,90.8
2018-09-24T07:34:36.252Z,92.3
2018-09-24T07:35:36.935Z,91.1
2018-09-24T07:36:37.611Z,90.7
2018-09-24T07:37:38.288Z,91.6
2018-09-24T07:38:38.967Z,91.6
2018-09-24T07:39:39.645Z,90.9
2018-09-24T07:40:40.336Z,90.4
2018-09-24T07:41:41.050Z,89.7
2018-09-24T07:42:41.726Z,88.2
2018-09-24T07:43:42.406Z,86.3
2018-09-24T07:44:43.088Z,85.7
2018-09-24T07:45:43.765Z,84.3
2018-09-24T07:46:44.469Z,83.3
2018-09-24T07:47:45.165Z,81.6
2018-09-24T07:48:45.894Z,79.9
2018-09-24T07:49:46.620Z,76.8
2018-09-24T07:50:47.298Z,74.8
2018-09-24T07:51:47.978Z,74.5
2018-09-24T07:52:48.658Z,72.3
2018-09-24T07:53:49.385Z,71.3
2018-09-24T07:54:50.015Z,72.3
2018-09-24T07:55:50.695Z,71.7
2018-09-24T07:56:51.420Z,70.7
2018-09-24T07:57:52.098Z,70.8
2018-09-24T07:58:52.777Z,70.7
2018-09-24T07:59:53.455Z,71.3
2018-09-24T08:00:54.145Z,72.1
2018-09-24T08:01:54.815Z,73.0
2018-09-24T08:02:55.495Z,73.1
2018-09-24T08:03:56.175Z,73.0
2018-09-24T08:04:56.854Z,72.8
2018-09-24T08:05:57.535Z,72.8
2018-09-24T08:06:58.213Z,73.4
2018-09-24T08:07:58.894Z,73.4
2018-09-24T08:08:59.617Z,73.2
2018-09-24T08:10:00.305Z,73.5
2018-09-24T08:11:00.977Z,74.6
2018-09-24T08:12:01.662Z,71.7
2018-09-24T08:13:02.447Z,71.0
2018-09-24T08:14:03.061Z,70.1
2018-09-24T08:15:03.741Z,69.9
2018-09-24T08:16:04.420Z,69.5
2018-09-24T08:17:05.101Z,67.1
2018-09-24T08:18:05.805Z,66.8
2018-09-24T08:19:06.471Z,65.6
2018-09-24T08:20:07.185Z,63.9
2018-09-24T08:21:07.928Z,62.9
2018-09-24T08:22:08.546Z,62.2
2018-09-24T08:23:09.226Z,61.9
2018-09-24T08:24:09.908Z,61.0
2018-09-24T08:25:10.637Z,60.5
2018-09-24T08:26:11.317Z,59.7
2018-09-24T08:27:11.999Z,57.1
2018-09-24T08:28:12.677Z,58.8
2018-09-24T08:29:13.409Z,59.0
2018-09-24T08:30:14.087Z,59.0
2018-09-24T08:31:14.769Z,59.0
2018-09-24T08:32:15.449Z,58.3
2018-09-24T08:33:16.129Z,58.1
2018-09-24T08:34:16.811Z,57.4
2018-09-24T08:35:17.492Z,56.6
2018-09-24T08:36:18.239Z,58.0
2018-09-24T08:37:18.893Z,57.6
2018-09-24T08:38:19.577Z,57.7
2018-09-24T08:39:20.303Z,58.0
2018-09-24T08:40:20.934Z,62.4
2018-09-24T08:41:21.613Z,65.9
2018-09-24T08:42:22.295Z,69.0
2018-09-24T08:43:22.977Z,68.9
2018-09-24T08:44:23.657Z,69.3
2018-09-24T08:45:24.339Z,68.6
2018-09-24T08:46:25.020Z,68.0
2018-09-24T08:47:25.700Z,69.6
2018-09-24T08:48:26.379Z,70.1
2018-09-24T08:49:27.060Z,70.1
2018-09-24T08:50:27.742Z,69.9
2018-09-24T08:51:28.422Z,68.1
2018-09-24T08:52:29.101Z,68.7
2018-09-24T08:53:29.854Z,68.2
2018-09-24T08:54:30.506Z,67.4
2018-09-24T08:55:31.183Z,67.1
2018-09-24T08:56:31.910Z,66.4
2018-09-24T08:57:32.544Z,65.8
2018-09-24T08:58:33.221Z,65.4
2018-09-24T08:59:33.900Z,67.0
2018-09-24T09:00:34.579Z,67.7
2018-09-24T09:01:35.259Z,66.5
2018-09-24T09:02:35.970Z,65.9
2018-09-24T09:03:36.619Z,64.9
2018-09-24T09:04:37.299Z,64.6
2018-09-24T09:05:37.980Z,63.7
2018-09-24T09:06:38.664Z,64.1
2018-09-24T09:07:39.427Z,63.4
2018-09-24T09:08:40.061Z,64.2
2018-09-24T09:09:40.743Z,64.5
2018-09-24T09:10:41.423Z,63.1
2018-09-24T09:11:42.103Z,62.8
2018-09-24T09:12:42.830Z,61.5
2018-09-24T09:13:43.509Z,60.6
2018-09-24T09:14:44.189Z,59.2
2018-09-24T09:15:44.870Z,59.5
2018-09-24T09:16:45.552Z,59.1
2018-09-24T09:17:46.233Z,58.1
2018-09-24T09:18:46.915Z,58.5
2018-09-24T09:19:47.600Z,58.6
2018-09-24T09:20:48.280Z,58.5
2018-09-24T09:21:48.960Z,58.0
2018-09-24T09:22:49.640Z,57.7
2018-09-24T09:23:50.327Z,56.8
2018-09-24T09:24:51.048Z,56.8
2018-09-24T09:25:51.730Z,55.4
2018-09-24T09:26:52.410Z,55.4
2018-09-24T09:27:53.115Z,55.4
2018-09-24T09:28:53.820Z,55.4
2018-09-24T09:29:54.504Z,54.1
2018-09-24T09:30:55.185Z,55.0
2018-09-24T09:31:55.910Z,55.4
2018-09-24T09:32:56.549Z,55.8
2018-09-24T09:33:57.228Z,55.4
2018-09-24T09:34:57.911Z,53.9
2018-09-24T09:35:58.639Z,54.5
2018-09-24T09:36:59.369Z,54.4
2018-09-24T09:38:00.053Z,55.4
2018-09-24T09:39:00.733Z,54.6
2018-09-24T09:40:01.417Z,55.0
2018-09-24T09:41:02.152Z,54.3
2018-09-24T09:42:02.828Z,54.1
2018-09-24T09:43:03.553Z,55.2
2018-09-24T09:44:04.235Z,54.0
2018-09-24T09:45:04.916Z,54.2
2018-09-24T09:46:05.598Z,53.5
2018-09-24T09:47:06.281Z,53.5
2018-09-24T09:48:06.964Z,53.3
2018-09-24T09:49:07.645Z,53.1
2018-09-24T09:50:08.327Z,53.2
2018-09-24T09:51:09.009Z,54.1
2018-09-24T09:52:09.695Z,52.8
2018-09-24T09:53:10.372Z,54.5
2018-09-24T09:54:11.055Z,53.4
2018-09-24T09:55:11.737Z,52.4
2018-09-24T09:56:12.421Z,53.5
2018-09-24T09:57:13.100Z,53.5
2018-09-24T09:58:13.782Z,53.4
2018-09-24T09:59:14.541Z,55.1
2018-09-24T10:00:15.185Z,54.2
2018-09-24T10:01:15.911Z,53.9
2018-09-24T10:02:16.593Z,54.0
2018-09-24T10:03:17.322Z,53.4
2018-09-24T10:04:18.004Z,54.3
2018-09-24T10:05:18.687Z,54.9
2018-09-24T10:06:19.417Z,55.5
2018-09-24T10:07:20.139Z,56.9
2018-09-24T10:08:20.820Z,57.4
2018-09-24T10:09:21.548Z,57.6
2018-09-24T10:10:22.231Z,57.9
2018-09-24T10:11:22.913Z,58.2
2018-09-24T10:12:23.592Z,57.6
2018-09-24T10:13:24.274Z,57.0
2018-09-24T10:14:24.956Z,56.8
2018-09-24T10:15:25.638Z,55.9
2018-09-24T10:16:26.336Z,55.7
2018-09-24T10:17:27.047Z,56.2
2018-09-24T10:18:27.727Z,56.7
2018-09-24T10:19:28.449Z,56.6
2018-09-24T10:20:29.137Z,56.8
2018-09-24T10:21:29.849Z,56.6
2018-09-24T10:22:30.545Z,56.8
2018-09-24T10:23:31.223Z,56.6
2018-09-24T10:24:31.904Z,56.5
2018-09-24T10:25:32.587Z,55.4
2018-09-24T10:26:33.335Z,56.2
2018-09-24T10:27:34.042Z,55.4
2018-09-24T10:28:34.726Z,55.2
2018-09-24T10:29:35.411Z,56.5
2018-09-24T10:30:36.131Z,56.4
2018-09-24T10:31:36.814Z,56.1
2018-09-24T10:32:37.534Z,59.5
2018-09-24T10:33:38.213Z,61.0
2018-09-24T10:34:38.854Z,62.3
2018-09-24T10:35:39.538Z,65.3
2018-09-24T10:36:40.218Z,69.0
2018-09-24T10:37:40.899Z,70.5
2018-09-24T10:38:41.581Z,74.3
2018-09-24T10:39:42.306Z,75.0
2018-09-24T10:40:42.982Z,79.2
2018-09-24T10:41:43.664Z,77.6
2018-09-24T10:42:44.343Z,80.0
2018-09-24T10:43:45.024Z,79.7
2018-09-24T10:44:45.705Z,83.6
2018-09-24T10:45:46.386Z,76.9
2018-09-24T10:46:47.066Z,76.3
2018-09-24T10:47:47.792Z,81.8
2018-09-24T10:48:48.478Z,75.2
2018-09-24T10:49:49.204Z,75.6
2018-09-24T10:50:49.927Z,75.0
2018-09-24T10:51:50.609Z,74.6
2018-09-24T10:52:51.324Z,74.3
2018-09-24T10:53:52.009Z,73.8
2018-09-24T10:54:52.688Z,71.8
2018-09-24T10:55:53.423Z,70.6
2018-09-24T10:56:54.046Z,70.6
2018-09-24T10:57:54.725Z,70.3
2018-09-24T10:58:55.405Z,68.3
2018-09-24T10:59:56.130Z,66.3
2018-09-24T11:00:56.810Z,65.6
2018-09-24T11:01:57.492Z,64.7
2018-09-24T11:02:58.174Z,64.7
2018-09-24T11:03:58.852Z,65.1
2018-09-24T11:04:59.533Z,62.1
2018-09-24T11:06:00.212Z,64.1
2018-09-24T11:07:00.894Z,63.4
2018-09-24T11:08:01.573Z,61.9
2018-09-24T11:09:02.256Z,61.5
2018-09-24T11:10:02.940Z,62.8
2018-09-24T11:11:03.665Z,61.1
2018-09-24T11:12:04.346Z,60.5
2018-09-24T11:13:05.028Z,60.5
2018-09-24T11:14:05.705Z,62.3
2018-09-24T11:15:06.388Z,62.2
2018-09-24T11:16:07.228Z,64.4
2018-09-24T11:17:07.978Z,65.2
2018-09-24T11:18:08.471Z,64.6
2018-09-24T11:19:09.110Z,65.2
2018-09-24T11:20:09.791Z,66.3
2018-09-24T11:21:10.472Z,66.3
2018-09-24T11:22:11.244Z,66.6
2018-09-24T11:23:11.834Z,64.9
2018-09-24T11:24:12.516Z,64.3
2018-09-24T11:25:13.240Z,62.5
2018-09-24T11:27:14.641Z,63.7
2018-09-24T11:28:15.320Z,63.1
2018-09-24T11:29:16.011Z,63.2
2018-09-24T11:30:16.717Z,63.1
2018-09-24T11:31:17.397Z,62.9
2018-09-24T11:32:18.076Z,64.0
2018-09-24T11:33:18.758Z,63.2
2018-09-24T11:34:19.456Z,61.9
2018-09-24T11:35:20.118Z,60.8
2018-09-24T11:36:20.845Z,61.8
2018-09-24T11:37:21.526Z,60.9
2018-09-24T11:38:22.210Z,59.3
2018-09-24T11:39:22.934Z,59.6
2018-09-24T11:40:23.614Z,58.8
2018-09-24T11:41:24.295Z,60.5
2018-09-24T11:42:24.975Z,61.0
2018-09-24T11:43:25.656Z,60.5
2018-09-24T11:44:26.383Z,60.5
2018-09-24T11:45:27.062Z,59.4
2018-09-24T11:46:27.767Z,60.0
2018-09-24T11:47:28.423Z,61.4
2018-09-24T11:48:29.105Z,60.9
2018-09-24T11:49:29.784Z,60.6
2018-09-24T11:50:30.464Z,61.8
2018-09-24T11:51:31.146Z,60.8
2018-09-24T11:52:31.827Z,58.6
2018-09-24T11:53:32.529Z,58.4
2018-09-24T11:54:33.232Z,59.2
2018-09-24T11:55:33.911Z,55.2
2018-09-24T11:56:34.594Z,55.6
2018-09-24T11:57:35.275Z,55.0
2018-09-24T11:58:35.956Z,54.2
2018-09-24T11:59:36.636Z,54.9
2018-09-24T12:00:37.322Z,55.2
2018-09-24T12:01:38.048Z,56.3
2018-09-24T12:02:38.730Z,54.4
2018-09-24T12:03:39.411Z,54.0
2018-09-24T12:04:40.091Z,55.6
2018-09-24T12:05:40.771Z,56.1
2018-09-24T12:06:41.455Z,54.9
2018-09-24T12:07:42.135Z,55.2
2018-09-24T12:08:42.816Z,55.0
2018-09-24T12:09:43.500Z,55.7
2018-09-24T12:10:44.180Z,54.8
2018-09-24T12:11:44.907Z,54.4
2018-09-24T12:12:45.588Z,54.0
2018-09-24T12:13:46.268Z,53.8
2018-09-24T12:14:46.950Z,51.5
2018-09-24T12:15:47.633Z,51.2
2018-09-24T12:16:48.315Z,52.6
2018-09-24T12:17:48.997Z,51.8
2018-09-24T12:18:49.679Z,52.2
2018-09-24T12:19:50.406Z,51.8
2018-09-24T12:20:51.088Z,52.5
2018-09-24T12:21:51.770Z,53.4
2018-09-24T12:22:52.452Z,53.4
2018-09-24T12:23:53.135Z,53.4
2018-09-24T12:24:53.815Z,54.1
2018-09-24T12:25:54.543Z,55.0
2018-09-24T12:26:55.225Z,55.2
2018-09-24T12:27:55.913Z,56.6
2018-09-24T12:28:56.588Z,55.9
2018-09-24T12:29:57.269Z,57.0
2018-09-24T12:30:57.997Z,57.3
2018-09-24T12:31:58.714Z,58.0
2018-09-24T12:32:59.408Z,58.5
2018-09-24T12:34:00.090Z,59.1
2018-09-24T12:35:00.771Z,60.0
2018-09-24T12:36:01.454Z,59.3
2018-09-24T12:37:02.135Z,59.1
2018-09-24T12:38:02.817Z,60.0
2018-09-24T12:39:03.533Z,59.8
2018-09-24T12:40:04.221Z,59.6
2018-09-24T12:41:04.902Z,61.0
2018-09-24T12:42:05.587Z,60.9
2018-09-24T12:43:06.267Z,61.3
2018-09-24T12:44:06.945Z,60.8
2018-09-24T12:45:07.627Z,60.4
2018-09-24T12:46:08.308Z,60.4
2018-09-24T12:47:08.988Z,60.8
2018-09-24T12:48:09.727Z,61.3
2018-09-24T12:49:10.392Z,61.0
2018-09-24T12:50:11.075Z,61.3
2018-09-24T12:51:11.760Z,61.7
2018-09-24T12:52:12.483Z,61.5
2018-09-24T12:53:13.165Z,59.9
2018-09-24T12:54:13.843Z,59.8
2018-09-24T12:55:14.525Z,57.3
2018-09-24T12:56:15.207Z,57.2
2018-09-24T12:57:15.888Z,56.9
2018-09-24T12:58:16.566Z,57.3
2018-09-24T12:59:17.248Z,57.2
2018-09-24T13:00:17.930Z,56.6
2018-09-24T13:01:18.631Z,56.4
2018-09-24T13:02:19.338Z,55.4
2018-09-24T13:03:20.017Z,54.8
2018-09-24T13:04:20.700Z,56.4
2018-09-24T13:05:21.386Z,55.7
2018-09-24T13:06:22.107Z,55.0
2018-09-24T13:07:22.788Z,55.1
2018-09-24T13:08:23.502Z,54.5
2018-09-24T13:09:24.149Z,54.7
2018-09-24T13:10:24.836Z,56.1
2018-09-24T13:11:25.513Z,55.4
2018-09-24T13:12:26.194Z,55.3
2018-09-24T13:13:26.875Z,56.1
2018-09-24T13:14:27.557Z,55.1